sensor_id;sensor_type;location;lat;lon;timestamp;pressure;altitude;pressure_sealevel;temperature;humidity
10079;BME280;5078;42.544;22.966;2023-02-22T00:01:16;93920.47;;;4.84;70.17
10079;BME280;5078;42.544;22.966;2023-02-22T00:03:59;93934.56;;;4.64;70.14
10079;BME280;5078;42.544;22.966;2023-02-22T00:06:28;93930.13;;;4.35;72.76
10079;BME280;5078;42.544;22.966;2023-02-22T00:08:56;93918.50;;;4.18;72.56
10079;BME280;5078;42.544;22.966;2023-02-22T00:11:23;93929.53;;;4.22;72.52
10079;BME280;5078;42.544;22.966;2023-02-22T00:13:50;93926.69;;;4.44;72.27
10079;BME280;5078;42.544;22.966;2023-02-22T00:16:19;93920.72;;;4.23;72.81
10079;BME280;5078;42.544;22.966;2023-02-22T00:18:46;93933.16;;;4.30;72.42
10079;BME280;5078;42.544;22.966;2023-02-22T00:21:13;93933.59;;;4.36;72.38
10079;BME280;5078;42.544;22.966;2023-02-22T00:23:44;93914.81;;;4.40;72.52
10079;BME280;5078;42.544;22.966;2023-02-22T00:26:13;93921.28;;;4.46;71.98
10079;BME280;5078;42.544;22.966;2023-02-22T00:28:43;93926.28;;;4.29;72.66
10079;BME280;5078;42.544;22.966;2023-02-22T00:31:10;93928.16;;;4.08;74.78
10079;BME280;5078;42.544;22.966;2023-02-22T00:33:37;93916.13;;;4.05;75.90
10079;BME280;5078;42.544;22.966;2023-02-22T00:36:05;93926.06;;;4.02;75.99
10079;BME280;5078;42.544;22.966;2023-02-22T00:38:32;93914.75;;;4.01;75.71
10079;BME280;5078;42.544;22.966;2023-02-22T00:41:00;93920.44;;;4.16;75.26
10079;BME280;5078;42.544;22.966;2023-02-22T00:43:27;93923.31;;;4.03;75.91
10079;BME280;5078;42.544;22.966;2023-02-22T00:45:53;93923.88;;;4.17;74.73
10079;BME280;5078;42.544;22.966;2023-02-22T00:48:21;93880.19;;;3.86;75.56
10079;BME280;5078;42.544;22.966;2023-02-22T00:50:48;93918.06;;;4.03;77.21
10079;BME280;5078;42.544;22.966;2023-02-22T00:53:20;93920.59;;;4.15;76.78
10079;BME280;5078;42.544;22.966;2023-02-22T00:55:47;93923.75;;;3.68;80.21
10079;BME280;5078;42.544;22.966;2023-02-22T00:58:15;93904.16;;;3.62;84.02
10079;BME280;5078;42.544;22.966;2023-02-22T01:00:43;93912.38;;;3.48;86.40
10079;BME280;5078;42.544;22.966;2023-02-22T01:03:13;93917.69;;;3.67;86.42
10079;BME280;5078;42.544;22.966;2023-02-22T01:05:40;93913.59;;;3.75;85.82
10079;BME280;5078;42.544;22.966;2023-02-22T01:08:08;93917.31;;;3.82;84.74
10079;BME280;5078;42.544;22.966;2023-02-22T01:10:36;93915.06;;;3.67;86.25
10079;BME280;5078;42.544;22.966;2023-02-22T01:13:04;93907.91;;;3.70;87.23
10079;BME280;5078;42.544;22.966;2023-02-22T01:15:36;93912.66;;;3.45;89.25
10079;BME280;5078;42.544;22.966;2023-02-22T01:18:03;93907.56;;;3.22;91.26
10079;BME280;5078;42.544;22.966;2023-02-22T01:20:31;93904.09;;;3.22;91.14
10079;BME280;5078;42.544;22.966;2023-02-22T01:23:00;93912.31;;;3.38;91.75
10079;BME280;5078;42.544;22.966;2023-02-22T01:25:29;93900.91;;;3.49;89.86
10079;BME280;5078;42.544;22.966;2023-02-22T01:27:57;93901.09;;;3.57;89.22
10079;BME280;5078;42.544;22.966;2023-02-22T01:30:26;93882.44;;;3.51;88.38
10079;BME280;5078;42.544;22.966;2023-02-22T01:32:55;93903.19;;;3.63;88.03
10079;BME280;5078;42.544;22.966;2023-02-22T01:35:25;93891.59;;;3.66;87.11
10079;BME280;5078;42.544;22.966;2023-02-22T01:37:53;93884.44;;;3.68;88.34
10079;BME280;5078;42.544;22.966;2023-02-22T01:40:21;93895.47;;;3.72;87.50
10079;BME280;5078;42.544;22.966;2023-02-22T01:42:51;93883.31;;;3.61;87.67
10079;BME280;5078;42.544;22.966;2023-02-22T01:45:42;93882.44;;;3.51;89.37
10079;BME280;5078;42.544;22.966;2023-02-22T01:48:16;93879.97;;;3.59;90.06
10079;BME280;5078;42.544;22.966;2023-02-22T01:50:47;93881.81;;;3.68;88.98
10079;BME280;5078;42.544;22.966;2023-02-22T01:53:17;93881.50;;;3.61;88.32
10079;BME280;5078;42.544;22.966;2023-02-22T01:55:45;93885.09;;;3.60;88.22
10079;BME280;5078;42.544;22.966;2023-02-22T01:58:13;93876.56;;;3.28;90.13
10079;BME280;5078;42.544;22.966;2023-02-22T02:00:42;93882.72;;;3.48;89.73
10079;BME280;5078;42.544;22.966;2023-02-22T02:03:14;93882.75;;;3.57;89.17
10079;BME280;5078;42.544;22.966;2023-02-22T02:05:44;93882.13;;;3.44;88.76
10079;BME280;5078;42.544;22.966;2023-02-22T02:08:23;93896.38;;;3.51;87.85
10079;BME280;5078;42.544;22.966;2023-02-22T02:10:55;93890.03;;;3.54;86.87
10079;BME280;5078;42.544;22.966;2023-02-22T02:13:23;93890.38;;;3.39;85.57
10079;BME280;5078;42.544;22.966;2023-02-22T02:15:52;93879.81;;;3.10;85.13
10079;BME280;5078;42.544;22.966;2023-02-22T02:18:21;93874.19;;;2.94;84.78
10079;BME280;5078;42.544;22.966;2023-02-22T02:20:59;93898.56;;;2.94;84.57
10079;BME280;5078;42.544;22.966;2023-02-22T02:23:49;93882.97;;;2.62;84.30
10079;BME280;5078;42.544;22.966;2023-02-22T02:29:41;93892.59;;;1.97;89.30
10079;BME280;5078;42.544;22.966;2023-02-22T02:32:21;93898.69;;;1.86;90.60
10079;BME280;5078;42.544;22.966;2023-02-22T02:34:57;93914.16;;;1.78;90.79
10079;BME280;5078;42.544;22.966;2023-02-22T02:37:32;93905.03;;;1.61;93.29
10079;BME280;5078;42.544;22.966;2023-02-22T02:40:11;93907.22;;;1.45;93.06
10079;BME280;5078;42.544;22.966;2023-02-22T02:42:52;93897.44;;;1.58;92.64
10079;BME280;5078;42.544;22.966;2023-02-22T02:45:22;93915.34;;;1.74;92.39
10079;BME280;5078;42.544;22.966;2023-02-22T02:47:54;93912.06;;;1.49;94.21
10079;BME280;5078;42.544;22.966;2023-02-22T02:50:26;93914.19;;;1.56;93.95
10079;BME280;5078;42.544;22.966;2023-02-22T02:52:58;93921.06;;;1.57;93.64
10079;BME280;5078;42.544;22.966;2023-02-22T02:55:28;93919.41;;;1.67;93.18
10079;BME280;5078;42.544;22.966;2023-02-22T02:57:55;93922.13;;;1.88;92.47
10079;BME280;5078;42.544;22.966;2023-02-22T03:00:27;93923.44;;;1.71;92.72
10079;BME280;5078;42.544;22.966;2023-02-22T03:03:12;93920.13;;;1.46;94.53
10079;BME280;5078;42.544;22.966;2023-02-22T03:06:05;93921.31;;;1.65;95.42
10079;BME280;5078;42.544;22.966;2023-02-22T03:08:40;93916.94;;;1.54;96.27
10079;BME280;5078;42.544;22.966;2023-02-22T03:11:11;93922.97;;;1.32;98.66
10079;BME280;5078;42.544;22.966;2023-02-22T03:13:47;93923.00;;;1.21;100.00
10079;BME280;5078;42.544;22.966;2023-02-22T03:16:18;93920.84;;;1.37;100.00
10079;BME280;5078;42.544;22.966;2023-02-22T03:18:53;93925.72;;;1.53;100.00
10079;BME280;5078;42.544;22.966;2023-02-22T03:21:25;93924.16;;;1.73;99.99
10079;BME280;5078;42.544;22.966;2023-02-22T03:23:59;93917.34;;;1.82;98.53
10079;BME280;5078;42.544;22.966;2023-02-22T03:26:32;93924.13;;;1.96;97.35
10079;BME280;5078;42.544;22.966;2023-02-22T03:29:00;93929.50;;;1.83;97.84
10079;BME280;5078;42.544;22.966;2023-02-22T03:31:32;93926.47;;;1.99;96.92
10079;BME280;5078;42.544;22.966;2023-02-22T03:34:05;93927.56;;;1.96;97.76
10079;BME280;5078;42.544;22.966;2023-02-22T03:36:37;93923.19;;;1.85;98.28
10079;BME280;5078;42.544;22.966;2023-02-22T03:39:08;93927.91;;;1.91;98.56
10079;BME280;5078;42.544;22.966;2023-02-22T03:41:38;93921.47;;;2.07;97.06
10079;BME280;5078;42.544;22.966;2023-02-22T03:44:07;93920.97;;;2.13;96.34
10079;BME280;5078;42.544;22.966;2023-02-22T03:46:37;93927.97;;;2.24;95.38
10079;BME280;5078;42.544;22.966;2023-02-22T03:49:10;93930.47;;;2.25;93.76
10079;BME280;5078;42.544;22.966;2023-02-22T03:51:38;93923.22;;;2.18;93.34
10079;BME280;5078;42.544;22.966;2023-02-22T03:54:05;93926.75;;;2.28;91.78
10079;BME280;5078;42.544;22.966;2023-02-22T03:56:37;93925.84;;;2.18;92.74
10079;BME280;5078;42.544;22.966;2023-02-22T03:59:11;93933.19;;;2.24;93.45
10079;BME280;5078;42.544;22.966;2023-02-22T04:01:39;93935.28;;;1.98;94.52
10079;BME280;5078;42.544;22.966;2023-02-22T04:04:07;93931.81;;;2.08;95.18
10079;BME280;5078;42.544;22.966;2023-02-22T04:06:34;93918.94;;;2.16;94.72
10079;BME280;5078;42.544;22.966;2023-02-22T04:09:00;93890.38;;;1.92;94.56
10079;BME280;5078;42.544;22.966;2023-02-22T04:11:27;93930.03;;;2.09;94.26
10079;BME280;5078;42.544;22.966;2023-02-22T04:13:54;93925.34;;;1.80;95.82
10079;BME280;5078;42.544;22.966;2023-02-22T04:16:21;93916.19;;;1.86;96.50
10079;BME280;5078;42.544;22.966;2023-02-22T04:18:48;93923.59;;;2.13;95.03
10079;BME280;5078;42.544;22.966;2023-02-22T04:21:16;93918.13;;;2.16;93.89
10079;BME280;5078;42.544;22.966;2023-02-22T04:23:43;93919.56;;;2.09;93.13
10079;BME280;5078;42.544;22.966;2023-02-22T04:26:09;93925.66;;;1.98;92.79
10079;BME280;5078;42.544;22.966;2023-02-22T04:28:36;93922.06;;;2.10;92.95
10079;BME280;5078;42.544;22.966;2023-02-22T04:31:03;93922.31;;;2.07;92.60
10079;BME280;5078;42.544;22.966;2023-02-22T04:33:30;93927.09;;;1.91;92.45
10079;BME280;5078;42.544;22.966;2023-02-22T04:35:56;93924.25;;;1.83;93.07
10079;BME280;5078;42.544;22.966;2023-02-22T04:38:25;93919.59;;;1.98;92.13
10079;BME280;5078;42.544;22.966;2023-02-22T04:40:52;93928.69;;;1.26;94.43
10079;BME280;5078;42.544;22.966;2023-02-22T04:43:20;93929.41;;;1.39;96.44
10079;BME280;5078;42.544;22.966;2023-02-22T04:45:47;93926.78;;;1.73;96.19
10079;BME280;5078;42.544;22.966;2023-02-22T04:48:14;93928.34;;;1.53;95.17
10079;BME280;5078;42.544;22.966;2023-02-22T04:50:40;93928.53;;;1.84;95.24
10079;BME280;5078;42.544;22.966;2023-02-22T04:53:07;93923.66;;;1.79;92.14
10079;BME280;5078;42.544;22.966;2023-02-22T04:55:35;93931.50;;;1.90;91.59
10079;BME280;5078;42.544;22.966;2023-02-22T04:58:02;93931.28;;;1.71;92.17
10079;BME280;5078;42.544;22.966;2023-02-22T05:00:29;93930.31;;;1.72;92.68
10079;BME280;5078;42.544;22.966;2023-02-22T05:02:56;93933.44;;;1.21;93.81
10079;BME280;5078;42.544;22.966;2023-02-22T05:05:22;93939.38;;;1.23;96.42
10079;BME280;5078;42.544;22.966;2023-02-22T05:07:49;93927.75;;;1.38;95.36
10079;BME280;5078;42.544;22.966;2023-02-22T05:10:17;93935.75;;;0.79;98.61
10079;BME280;5078;42.544;22.966;2023-02-22T05:12:45;93941.59;;;0.82;100.00
10079;BME280;5078;42.544;22.966;2023-02-22T05:15:15;93943.81;;;0.76;100.00
10079;BME280;5078;42.544;22.966;2023-02-22T05:17:42;93921.88;;;0.90;100.00
10079;BME280;5078;42.544;22.966;2023-02-22T05:20:15;93932.31;;;0.78;100.00
10079;BME280;5078;42.544;22.966;2023-02-22T05:22:43;93942.44;;;1.17;100.00
10079;BME280;5078;42.544;22.966;2023-02-22T05:25:09;93931.03;;;1.74;100.00
10079;BME280;5078;42.544;22.966;2023-02-22T05:27:36;93941.44;;;2.08;100.00
10079;BME280;5078;42.544;22.966;2023-02-22T05:30:05;93933.06;;;2.25;97.35
10079;BME280;5078;42.544;22.966;2023-02-22T05:32:33;93939.09;;;2.05;95.17
10079;BME280;5078;42.544;22.966;2023-02-22T05:35:00;93946.44;;;2.00;94.01
10079;BME280;5078;42.544;22.966;2023-02-22T05:37:27;93939.94;;;1.83;95.67
10079;BME280;5078;42.544;22.966;2023-02-22T05:39:53;93934.06;;;2.02;94.21
10079;BME280;5078;42.544;22.966;2023-02-22T05:42:21;93954.97;;;2.13;92.89
10079;BME280;5078;42.544;22.966;2023-02-22T05:44:47;93955.50;;;1.84;93.68
10079;BME280;5078;42.544;22.966;2023-02-22T05:47:15;93953.97;;;1.59;96.34
10079;BME280;5078;42.544;22.966;2023-02-22T05:49:42;93960.38;;;1.89;96.68
10079;BME280;5078;42.544;22.966;2023-02-22T05:52:09;93955.84;;;1.91;95.36
10079;BME280;5078;42.544;22.966;2023-02-22T05:54:36;93964.66;;;1.22;98.14
10079;BME280;5078;42.544;22.966;2023-02-22T05:57:04;93963.72;;;1.46;98.80
10079;BME280;5078;42.544;22.966;2023-02-22T05:59:30;93964.91;;;1.31;100.00
10079;BME280;5078;42.544;22.966;2023-02-22T06:01:57;93963.34;;;1.62;100.00
10079;BME280;5078;42.544;22.966;2023-02-22T06:04:25;93972.16;;;2.38;95.56
10079;BME280;5078;42.544;22.966;2023-02-22T06:06:53;93973.13;;;2.90;91.59
10079;BME280;5078;42.544;22.966;2023-02-22T06:09:19;93972.34;;;2.99;89.31
10079;BME280;5078;42.544;22.966;2023-02-22T06:11:46;93967.75;;;2.92;88.81
10079;BME280;5078;42.544;22.966;2023-02-22T06:14:13;93940.47;;;2.73;89.34
10079;BME280;5078;42.544;22.966;2023-02-22T06:16:40;93921.97;;;3.07;87.61
10079;BME280;5078;42.544;22.966;2023-02-22T06:19:07;93914.56;;;3.43;83.02
10079;BME280;5078;42.544;22.966;2023-02-22T06:21:35;93972.69;;;4.48;79.24
10079;BME280;5078;42.544;22.966;2023-02-22T06:24:02;93988.88;;;4.03;78.86
10079;BME280;5078;42.544;22.966;2023-02-22T06:26:29;93937.44;;;3.41;81.02
10079;BME280;5078;42.544;22.966;2023-02-22T06:28:56;93995.81;;;4.04;79.96
10079;BME280;5078;42.544;22.966;2023-02-22T06:31:23;93968.34;;;4.08;78.41
10079;BME280;5078;42.544;22.966;2023-02-22T06:33:49;93984.91;;;4.09;78.42
10079;BME280;5078;42.544;22.966;2023-02-22T06:36:16;93982.47;;;4.27;76.95
10079;BME280;5078;42.544;22.966;2023-02-22T06:38:44;93978.34;;;5.22;74.32
10079;BME280;5078;42.544;22.966;2023-02-22T06:41:11;93978.81;;;5.64;69.26
10079;BME280;5078;42.544;22.966;2023-02-22T06:43:39;93979.09;;;6.08;65.90
10079;BME280;5078;42.544;22.966;2023-02-22T06:46:09;93977.84;;;6.40;63.36
10079;BME280;5078;42.544;22.966;2023-02-22T06:48:36;93980.94;;;6.53;61.59
10079;BME280;5078;42.544;22.966;2023-02-22T06:51:04;93986.63;;;6.94;60.11
10079;BME280;5078;42.544;22.966;2023-02-22T06:53:32;93974.72;;;7.08;59.14
10079;BME280;5078;42.544;22.966;2023-02-22T06:56:00;93975.97;;;7.40;57.19
10079;BME280;5078;42.544;22.966;2023-02-22T06:58:27;93976.50;;;7.69;56.59
10079;BME280;5078;42.544;22.966;2023-02-22T07:00:54;93966.44;;;7.99;55.48
10079;BME280;5078;42.544;22.966;2023-02-22T07:03:23;93970.81;;;7.82;54.79
10079;BME280;5078;42.544;22.966;2023-02-22T07:05:49;93951.69;;;7.10;58.69
10079;BME280;5078;42.544;22.966;2023-02-22T07:08:16;93965.94;;;7.43;58.00
10079;BME280;5078;42.544;22.966;2023-02-22T07:10:46;93964.06;;;7.88;56.26
10079;BME280;5078;42.544;22.966;2023-02-22T07:13:16;93965.22;;;7.85;55.01
10079;BME280;5078;42.544;22.966;2023-02-22T07:15:42;93961.69;;;8.11;55.22
10079;BME280;5078;42.544;22.966;2023-02-22T07:18:09;93954.66;;;8.70;52.86
10079;BME280;5078;42.544;22.966;2023-02-22T07:20:37;93942.44;;;8.69;52.37
10079;BME280;5078;42.544;22.966;2023-02-22T07:23:05;93958.84;;;9.05;52.18
10079;BME280;5078;42.544;22.966;2023-02-22T07:25:32;93932.56;;;9.12;51.51
10079;BME280;5078;42.544;22.966;2023-02-22T07:27:59;93846.78;;;7.90;52.81
10079;BME280;5078;42.544;22.966;2023-02-22T07:30:29;93954.94;;;8.42;53.37
10079;BME280;5078;42.544;22.966;2023-02-22T07:32:57;93932.50;;;8.63;53.33
10079;BME280;5078;42.544;22.966;2023-02-22T07:35:26;93899.50;;;8.59;52.01
10079;BME280;5078;42.544;22.966;2023-02-22T07:37:53;93948.78;;;9.34;50.95
10079;BME280;5078;42.544;22.966;2023-02-22T07:40:20;93953.72;;;8.96;52.49
10079;BME280;5078;42.544;22.966;2023-02-22T07:42:55;93926.13;;;9.23;50.98
10079;BME280;5078;42.544;22.966;2023-02-22T07:45:27;93940.50;;;9.20;51.30
10079;BME280;5078;42.544;22.966;2023-02-22T07:47:54;93944.63;;;9.23;51.29
10079;BME280;5078;42.544;22.966;2023-02-22T07:50:22;93943.84;;;10.03;49.36
10079;BME280;5078;42.544;22.966;2023-02-22T07:52:51;93927.63;;;10.53;48.26
10079;BME280;5078;42.544;22.966;2023-02-22T07:55:20;93930.44;;;10.52;48.12
10079;BME280;5078;42.544;22.966;2023-02-22T07:57:47;93932.00;;;10.38;47.74
10079;BME280;5078;42.544;22.966;2023-02-22T08:00:20;93931.00;;;10.39;47.81
10079;BME280;5078;42.544;22.966;2023-02-22T08:02:49;93936.41;;;10.06;48.76
10079;BME280;5078;42.544;22.966;2023-02-22T08:05:16;93903.22;;;10.27;48.15
10079;BME280;5078;42.544;22.966;2023-02-22T08:07:47;93905.72;;;11.29;46.19
10079;BME280;5078;42.544;22.966;2023-02-22T08:10:17;93931.03;;;11.54;46.38
10079;BME280;5078;42.544;22.966;2023-02-22T08:12:45;93921.50;;;11.45;45.84
10079;BME280;5078;42.544;22.966;2023-02-22T08:15:17;93916.94;;;11.54;45.56
10079;BME280;5078;42.544;22.966;2023-02-22T08:17:44;93914.34;;;12.28;43.98
10079;BME280;5078;42.544;22.966;2023-02-22T08:20:13;93921.41;;;12.87;42.95
10079;BME280;5078;42.544;22.966;2023-02-22T08:22:42;93903.88;;;13.14;42.18
10079;BME280;5078;42.544;22.966;2023-02-22T08:25:09;93906.63;;;13.70;41.19
10079;BME280;5078;42.544;22.966;2023-02-22T08:27:35;93900.84;;;13.67;40.98
10079;BME280;5078;42.544;22.966;2023-02-22T08:30:03;93892.03;;;13.94;40.20
10079;BME280;5078;42.544;22.966;2023-02-22T08:32:30;93898.66;;;14.05;40.21
10079;BME280;5078;42.544;22.966;2023-02-22T08:34:57;93887.72;;;13.93;39.69
10079;BME280;5078;42.544;22.966;2023-02-22T08:37:26;93889.97;;;13.62;41.29
10079;BME280;5078;42.544;22.966;2023-02-22T08:39:55;93851.28;;;13.66;40.43
10079;BME280;5078;42.544;22.966;2023-02-22T08:42:22;93881.72;;;14.61;38.98
10079;BME280;5078;42.544;22.966;2023-02-22T08:44:49;93875.47;;;15.08;37.76
10079;BME280;5078;42.544;22.966;2023-02-22T08:47:16;93874.09;;;15.52;37.36
10079;BME280;5078;42.544;22.966;2023-02-22T08:49:43;93881.47;;;15.44;37.07
10079;BME280;5078;42.544;22.966;2023-02-22T08:52:10;93864.66;;;14.14;39.01
10079;BME280;5078;42.544;22.966;2023-02-22T08:54:39;93882.28;;;15.24;38.63
10079;BME280;5078;42.544;22.966;2023-02-22T08:57:05;93874.50;;;15.89;36.85
10079;BME280;5078;42.544;22.966;2023-02-22T08:59:32;93873.25;;;15.59;37.16
10079;BME280;5078;42.544;22.966;2023-02-22T09:01:59;93872.03;;;15.61;37.13
10079;BME280;5078;42.544;22.966;2023-02-22T09:04:27;93868.34;;;15.76;36.76
10079;BME280;5078;42.544;22.966;2023-02-22T09:06:54;93807.03;;;15.67;36.31
10079;BME280;5078;42.544;22.966;2023-02-22T09:09:21;93868.53;;;16.59;35.55
10079;BME280;5078;42.544;22.966;2023-02-22T09:11:49;93867.47;;;16.15;36.41
10079;BME280;5078;42.544;22.966;2023-02-22T09:14:16;93859.53;;;16.47;36.01
10079;BME280;5078;42.544;22.966;2023-02-22T09:16:43;93862.09;;;16.73;35.75
10079;BME280;5078;42.544;22.966;2023-02-22T09:19:10;93851.00;;;17.40;35.39
10079;BME280;5078;42.544;22.966;2023-02-22T09:21:37;93851.38;;;17.43;35.10
10079;BME280;5078;42.544;22.966;2023-02-22T09:24:05;93849.09;;;16.77;35.55
10079;BME280;5078;42.544;22.966;2023-02-22T09:26:33;93833.84;;;16.84;35.49
10079;BME280;5078;42.544;22.966;2023-02-22T09:29:05;93847.84;;;18.00;34.09
10079;BME280;5078;42.544;22.966;2023-02-22T09:31:35;93840.06;;;18.47;33.33
10079;BME280;5078;42.544;22.966;2023-02-22T09:34:03;93836.22;;;18.43;33.20
10079;BME280;5078;42.544;22.966;2023-02-22T09:36:31;93841.16;;;18.27;33.67
10079;BME280;5078;42.544;22.966;2023-02-22T09:38:57;93836.50;;;18.16;34.14
10079;BME280;5078;42.544;22.966;2023-02-22T09:41:27;93826.50;;;18.60;33.77
10079;BME280;5078;42.544;22.966;2023-02-22T09:44:10;93833.28;;;18.81;33.33
10079;BME280;5078;42.544;22.966;2023-02-22T09:46:41;93830.38;;;19.13;32.65
10079;BME280;5078;42.544;22.966;2023-02-22T09:49:17;93821.78;;;19.46;32.09
10079;BME280;5078;42.544;22.966;2023-02-22T09:51:48;93816.53;;;19.51;32.11
10079;BME280;5078;42.544;22.966;2023-02-22T09:54:21;93814.66;;;19.52;32.06
10079;BME280;5078;42.544;22.966;2023-02-22T09:56:49;93824.09;;;18.89;32.50
10079;BME280;5078;42.544;22.966;2023-02-22T09:59:22;93812.47;;;19.60;31.81
10079;BME280;5078;42.544;22.966;2023-02-22T10:01:55;93816.34;;;19.76;31.08
10079;BME280;5078;42.544;22.966;2023-02-22T10:04:36;93808.25;;;20.12;31.47
10079;BME280;5078;42.544;22.966;2023-02-22T10:07:13;93799.34;;;20.23;30.87
10079;BME280;5078;42.544;22.966;2023-02-22T10:09:45;93813.13;;;19.44;31.07
10079;BME280;5078;42.544;22.966;2023-02-22T10:12:17;93799.66;;;19.21;31.50
10079;BME280;5078;42.544;22.966;2023-02-22T10:15:12;93791.34;;;18.13;33.24
10079;BME280;5078;42.544;22.966;2023-02-22T10:17:48;93793.81;;;18.63;33.09
10079;BME280;5078;42.544;22.966;2023-02-22T10:20:35;93791.59;;;18.60;32.64
10079;BME280;5078;42.544;22.966;2023-02-22T10:23:13;93787.75;;;18.19;33.03
10079;BME280;5078;42.544;22.966;2023-02-22T10:25:44;93784.94;;;18.32;33.14
10079;BME280;5078;42.544;22.966;2023-02-22T10:28:18;93777.66;;;18.51;32.79
10079;BME280;5078;42.544;22.966;2023-02-22T10:30:50;93778.31;;;17.73;33.37
10079;BME280;5078;42.544;22.966;2023-02-22T10:33:21;93772.84;;;18.23;32.52
10079;BME280;5078;42.544;22.966;2023-02-22T10:35:50;93763.06;;;18.29;32.90
10079;BME280;5078;42.544;22.966;2023-02-22T10:38:20;93762.31;;;18.70;32.11
10079;BME280;5078;42.544;22.966;2023-02-22T10:40:52;93747.88;;;19.25;31.78
10079;BME280;5078;42.544;22.966;2023-02-22T10:43:20;93748.38;;;18.92;31.35
10079;BME280;5078;42.544;22.966;2023-02-22T10:45:52;93743.09;;;19.27;30.20
10079;BME280;5078;42.544;22.966;2023-02-22T10:48:21;93714.09;;;19.41;30.35
10079;BME280;5078;42.544;22.966;2023-02-22T10:50:51;93731.19;;;18.51;30.83
10079;BME280;5078;42.544;22.966;2023-02-22T10:53:19;93726.94;;;18.13;31.62
10079;BME280;5078;42.544;22.966;2023-02-22T10:56:11;93729.25;;;18.09;31.63
10079;BME280;5078;42.544;22.966;2023-02-22T10:58:48;93727.16;;;18.30;31.45
10079;BME280;5078;42.544;22.966;2023-02-22T11:01:24;93702.16;;;18.60;29.44
10079;BME280;5078;42.544;22.966;2023-02-22T11:04:05;93713.44;;;18.20;30.21
10079;BME280;5078;42.544;22.966;2023-02-22T11:06:36;93710.84;;;18.13;31.23
10079;BME280;5078;42.544;22.966;2023-02-22T11:09:09;93709.25;;;18.54;30.79
10079;BME280;5078;42.544;22.966;2023-02-22T11:11:38;93710.63;;;18.15;30.19
10079;BME280;5078;42.544;22.966;2023-02-22T11:14:06;93713.00;;;18.04;30.54
10079;BME280;5078;42.544;22.966;2023-02-22T11:16:39;93708.97;;;18.14;30.36
10079;BME280;5078;42.544;22.966;2023-02-22T11:19:17;93698.06;;;18.87;29.55
10079;BME280;5078;42.544;22.966;2023-02-22T11:21:45;93704.06;;;18.10;29.88
10079;BME280;5078;42.544;22.966;2023-02-22T11:24:14;93687.16;;;17.92;30.06
10079;BME280;5078;42.544;22.966;2023-02-22T11:26:42;93692.53;;;17.92;30.40
10079;BME280;5078;42.544;22.966;2023-02-22T11:29:17;93699.81;;;17.66;32.09
10079;BME280;5078;42.544;22.966;2023-02-22T11:31:47;93684.84;;;17.95;31.74
10079;BME280;5078;42.544;22.966;2023-02-22T11:34:28;93687.44;;;17.46;32.93
10079;BME280;5078;42.544;22.966;2023-02-22T11:36:56;93688.88;;;17.24;32.78
10079;BME280;5078;42.544;22.966;2023-02-22T11:39:25;93679.97;;;17.30;32.93
10079;BME280;5078;42.544;22.966;2023-02-22T11:41:53;93662.41;;;16.91;33.84
10079;BME280;5078;42.544;22.966;2023-02-22T11:44:23;93672.31;;;16.90;34.06
10079;BME280;5078;42.544;22.966;2023-02-22T11:46:54;93675.94;;;17.21;34.60
10079;BME280;5078;42.544;22.966;2023-02-22T11:49:23;93672.69;;;17.37;33.99
10079;BME280;5078;42.544;22.966;2023-02-22T11:52:05;93674.19;;;17.52;34.34
10079;BME280;5078;42.544;22.966;2023-02-22T11:54:53;93671.63;;;17.57;34.22
10079;BME280;5078;42.544;22.966;2023-02-22T11:57:44;93660.47;;;17.97;33.40
10079;BME280;5078;42.544;22.966;2023-02-22T12:00:22;93666.44;;;17.99;33.28
10079;BME280;5078;42.544;22.966;2023-02-22T12:06:23;93655.69;;;18.17;32.97
10079;BME280;5078;42.544;22.966;2023-02-22T12:09:01;93653.78;;;18.48;32.35
10079;BME280;5078;42.544;22.966;2023-02-22T12:11:36;93651.13;;;18.18;32.72
10079;BME280;5078;42.544;22.966;2023-02-22T12:14:13;93642.69;;;18.44;32.57
10079;BME280;5078;42.544;22.966;2023-02-22T12:16:58;93648.84;;;18.75;32.07
10079;BME280;5078;42.544;22.966;2023-02-22T12:19:32;93638.13;;;18.87;31.85
10079;BME280;5078;42.544;22.966;2023-02-22T12:22:07;93627.34;;;18.75;32.01
10079;BME280;5078;42.544;22.966;2023-02-22T12:24:37;93608.94;;;17.95;32.31
10079;BME280;5078;42.544;22.966;2023-02-22T12:27:08;93625.69;;;18.62;31.71
10079;BME280;5078;42.544;22.966;2023-02-22T12:29:40;93623.28;;;18.30;32.27
10079;BME280;5078;42.544;22.966;2023-02-22T12:32:11;93623.69;;;17.85;32.79
10079;BME280;5078;42.544;22.966;2023-02-22T12:34:42;93622.00;;;18.33;32.49
10079;BME280;5078;42.544;22.966;2023-02-22T12:37:15;93612.31;;;18.32;32.36
10079;BME280;5078;42.544;22.966;2023-02-22T12:39:51;93615.66;;;18.58;32.04
10079;BME280;5078;42.544;22.966;2023-02-22T12:42:23;93601.44;;;18.27;32.27
10079;BME280;5078;42.544;22.966;2023-02-22T12:44:57;93615.06;;;18.14;33.05
10079;BME280;5078;42.544;22.966;2023-02-22T12:47:30;93609.47;;;18.15;32.65
10079;BME280;5078;42.544;22.966;2023-02-22T12:50:04;93611.16;;;17.79;33.01
10079;BME280;5078;42.544;22.966;2023-02-22T12:52:41;93609.69;;;17.83;32.78
10079;BME280;5078;42.544;22.966;2023-02-22T12:55:13;93599.25;;;17.94;32.70
10079;BME280;5078;42.544;22.966;2023-02-22T12:57:47;93609.81;;;17.88;32.45
10079;BME280;5078;42.544;22.966;2023-02-22T13:00:19;93571.03;;;17.73;33.20
10079;BME280;5078;42.544;22.966;2023-02-22T13:02:56;93591.50;;;18.16;32.72
10079;BME280;5078;42.544;22.966;2023-02-22T13:05:24;93599.00;;;18.25;32.49
10079;BME280;5078;42.544;22.966;2023-02-22T13:08:14;93593.66;;;18.49;32.13
10079;BME280;5078;42.544;22.966;2023-02-22T13:10:57;93601.63;;;18.14;32.40
10079;BME280;5078;42.544;22.966;2023-02-22T13:13:35;93593.41;;;18.39;32.08
10079;BME280;5078;42.544;22.966;2023-02-22T13:16:14;93591.97;;;18.24;32.40
10079;BME280;5078;42.544;22.966;2023-02-22T13:18:50;93580.81;;;18.27;32.16
10079;BME280;5078;42.544;22.966;2023-02-22T13:21:26;93584.19;;;18.23;32.56
10079;BME280;5078;42.544;22.966;2023-02-22T13:24:00;93572.88;;;18.32;32.29
10079;BME280;5078;42.544;22.966;2023-02-22T13:26:35;93587.38;;;18.43;31.92
10079;BME280;5078;42.544;22.966;2023-02-22T13:29:06;93578.25;;;18.44;32.18